sensor_id;sensor_type;location;lat;lon;timestamp;P1;durP1;ratioP1;P2;durP2;ratioP2
1460;SDS011;724;49.910;12.530;2023-04-03T00:02:00;14.85;;;14.05;;
1460;SDS011;724;49.910;12.530;2023-04-03T00:04:27;14.18;;;13.48;;
1460;SDS011;724;49.910;12.530;2023-04-03T00:06:56;14.50;;;13.80;;
1460;SDS011;724;49.910;12.530;2023-04-03T00:09:24;14.40;;;13.70;;
1460;SDS011;724;49.910;12.530;2023-04-03T00:11:51;14.10;;;13.40;;
1460;SDS011;724;49.910;12.530;2023-04-03T00:14:17;14.40;;;13.70;;
1460;SDS011;724;49.910;12.530;2023-04-03T00:16:44;14.30;;;13.60;;
1460;SDS011;724;49.910;12.530;2023-04-03T00:19:11;14.20;;;13.50;;
1460;SDS011;724;49.910;12.530;2023-04-03T00:21:38;13.98;;;13.27;;
1460;SDS011;724;49.910;12.530;2023-04-03T00:24:05;14.13;;;13.43;;
1460;SDS011;724;49.910;12.530;2023-04-03T00:26:34;14.30;;;13.60;;
1460;SDS011;724;49.910;12.530;2023-04-03T00:29:01;13.95;;;13.25;;
1460;SDS011;724;49.910;12.530;2023-04-03T00:31:27;13.80;;;13.10;;
1460;SDS011;724;49.910;12.530;2023-04-03T00:33:54;14.07;;;13.38;;
1460;SDS011;724;49.910;12.530;2023-04-03T00:36:21;14.18;;;13.48;;
1460;SDS011;724;49.910;12.530;2023-04-03T00:38:48;13.70;;;13.00;;
1460;SDS011;724;49.910;12.530;2023-04-03T00:41:14;13.90;;;13.20;;
1460;SDS011;724;49.910;12.530;2023-04-03T00:43:43;14.10;;;13.40;;
1460;SDS011;724;49.910;12.530;2023-04-03T00:46:10;13.88;;;13.18;;
1460;SDS011;724;49.910;12.530;2023-04-03T00:48:37;13.80;;;13.10;;
1460;SDS011;724;49.910;12.530;2023-04-03T00:51:07;13.70;;;13.00;;
1460;SDS011;724;49.910;12.530;2023-04-03T00:53:40;13.50;;;12.80;;
1460;SDS011;724;49.910;12.530;2023-04-03T00:56:11;13.60;;;12.90;;
1460;SDS011;724;49.910;12.530;2023-04-03T00:58:43;13.70;;;13.00;;
1460;SDS011;724;49.910;12.530;2023-04-03T01:01:15;13.95;;;13.25;;
1460;SDS011;724;49.910;12.530;2023-04-03T01:03:45;13.63;;;12.93;;
1460;SDS011;724;49.910;12.530;2023-04-03T01:06:12;13.30;;;12.60;;
1460;SDS011;724;49.910;12.530;2023-04-03T01:08:42;13.40;;;12.70;;
1460;SDS011;724;49.910;12.530;2023-04-03T01:11:11;13.10;;;12.40;;
1460;SDS011;724;49.910;12.530;2023-04-03T01:13:38;13.70;;;13.00;;
1460;SDS011;724;49.910;12.530;2023-04-03T01:16:07;13.30;;;12.60;;
1460;SDS011;724;49.910;12.530;2023-04-03T01:18:34;13.70;;;13.00;;
1460;SDS011;724;49.910;12.530;2023-04-03T01:24:30;12.82;;;12.13;;
1460;SDS011;724;49.910;12.530;2023-04-03T01:27:00;13.07;;;12.38;;
1460;SDS011;724;49.910;12.530;2023-04-03T01:29:29;13.40;;;12.70;;
1460;SDS011;724;49.910;12.530;2023-04-03T01:31:58;13.50;;;12.80;;
1460;SDS011;724;49.910;12.530;2023-04-03T01:34:26;13.60;;;12.90;;
1460;SDS011;724;49.910;12.530;2023-04-03T01:36:54;13.48;;;12.77;;
1460;SDS011;724;49.910;12.530;2023-04-03T01:39:21;13.70;;;13.00;;
1460;SDS011;724;49.910;12.530;2023-04-03T01:41:48;13.15;;;12.45;;
1460;SDS011;724;49.910;12.530;2023-04-03T01:44:17;13.40;;;12.70;;
1460;SDS011;724;49.910;12.530;2023-04-03T01:46:43;13.60;;;12.90;;
1460;SDS011;724;49.910;12.530;2023-04-03T01:49:12;13.25;;;12.55;;
1460;SDS011;724;49.910;12.530;2023-04-03T01:51:39;13.40;;;12.70;;
1460;SDS011;724;49.910;12.530;2023-04-03T01:54:06;13.38;;;12.68;;
1460;SDS011;724;49.910;12.530;2023-04-03T01:56:33;13.38;;;12.68;;
1460;SDS011;724;49.910;12.530;2023-04-03T01:58:59;13.50;;;12.80;;
1460;SDS011;724;49.910;12.530;2023-04-03T02:01:26;13.35;;;12.65;;
1460;SDS011;724;49.910;12.530;2023-04-03T02:03:53;13.35;;;12.65;;
1460;SDS011;724;49.910;12.530;2023-04-03T02:06:21;13.43;;;12.73;;
1460;SDS011;724;49.910;12.530;2023-04-03T02:08:48;13.27;;;12.57;;
1460;SDS011;724;49.910;12.530;2023-04-03T02:11:14;13.20;;;12.50;;
1460;SDS011;724;49.910;12.530;2023-04-03T02:13:41;13.30;;;12.60;;
1460;SDS011;724;49.910;12.530;2023-04-03T02:16:08;13.30;;;12.60;;
1460;SDS011;724;49.910;12.530;2023-04-03T02:18:37;13.10;;;12.40;;
1460;SDS011;724;49.910;12.530;2023-04-03T02:21:04;13.50;;;12.80;;
1460;SDS011;724;49.910;12.530;2023-04-03T02:23:32;13.40;;;12.70;;
1460;SDS011;724;49.910;12.530;2023-04-03T02:26:05;13.70;;;13.00;;
1460;SDS011;724;49.910;12.530;2023-04-03T02:28:33;13.60;;;12.90;;
1460;SDS011;724;49.910;12.530;2023-04-03T02:31:00;13.38;;;12.68;;
1460;SDS011;724;49.910;12.530;2023-04-03T02:33:27;13.80;;;13.10;;
1460;SDS011;724;49.910;12.530;2023-04-03T02:35:55;13.48;;;12.77;;
1460;SDS011;724;49.910;12.530;2023-04-03T02:38:22;13.60;;;12.90;;
1460;SDS011;724;49.910;12.530;2023-04-03T02:40:51;13.30;;;12.60;;
1460;SDS011;724;49.910;12.530;2023-04-03T02:43:18;13.60;;;12.90;;
1460;SDS011;724;49.910;12.530;2023-04-03T02:45:45;13.65;;;12.95;;
1460;SDS011;724;49.910;12.530;2023-04-03T02:48:11;13.60;;;12.90;;
1460;SDS011;724;49.910;12.530;2023-04-03T02:50:39;13.85;;;13.15;;
1460;SDS011;724;49.910;12.530;2023-04-03T02:53:06;13.90;;;13.20;;
1460;SDS011;724;49.910;12.530;2023-04-03T02:55:33;13.70;;;13.00;;
1460;SDS011;724;49.910;12.530;2023-04-03T02:58:01;13.50;;;12.80;;
1460;SDS011;724;49.910;12.530;2023-04-03T03:00:28;13.40;;;12.70;;
1460;SDS011;724;49.910;12.530;2023-04-03T03:02:55;13.02;;;12.32;;
1460;SDS011;724;49.910;12.530;2023-04-03T03:05:22;13.13;;;12.43;;
1460;SDS011;724;49.910;12.530;2023-04-03T03:07:48;13.60;;;12.90;;
1460;SDS011;724;49.910;12.530;2023-04-03T03:10:15;13.05;;;12.35;;
1460;SDS011;724;49.910;12.530;2023-04-03T03:12:42;13.60;;;12.90;;
1460;SDS011;724;49.910;12.530;2023-04-03T03:15:11;13.43;;;12.73;;
1460;SDS011;724;49.910;12.530;2023-04-03T03:17:38;12.82;;;12.13;;
1460;SDS011;724;49.910;12.530;2023-04-03T03:20:05;13.40;;;12.70;;
1460;SDS011;724;49.910;12.530;2023-04-03T03:22:34;13.15;;;12.45;;
1460;SDS011;724;49.910;12.530;2023-04-03T03:25:01;12.70;;;12.00;;
1460;SDS011;724;49.910;12.530;2023-04-03T03:27:28;12.70;;;12.00;;
1460;SDS011;724;49.910;12.530;2023-04-03T03:29:55;13.05;;;12.35;;
1460;SDS011;724;49.910;12.530;2023-04-03T03:32:24;13.00;;;12.30;;
1460;SDS011;724;49.910;12.530;2023-04-03T03:34:50;13.40;;;12.70;;
1460;SDS011;724;49.910;12.530;2023-04-03T03:37:17;13.50;;;12.80;;
1460;SDS011;724;49.910;12.530;2023-04-03T03:39:44;13.40;;;12.70;;
1460;SDS011;724;49.910;12.530;2023-04-03T03:42:10;13.15;;;12.45;;
1460;SDS011;724;49.910;12.530;2023-04-03T03:44:37;13.40;;;12.70;;
1460;SDS011;724;49.910;12.530;2023-04-03T03:47:05;13.50;;;12.80;;
1460;SDS011;724;49.910;12.530;2023-04-03T03:49:36;13.10;;;12.40;;
1460;SDS011;724;49.910;12.530;2023-04-03T03:52:02;13.30;;;12.60;;
1460;SDS011;724;49.910;12.530;2023-04-03T03:54:29;13.10;;;12.40;;
1460;SDS011;724;49.910;12.530;2023-04-03T03:56:56;13.30;;;12.60;;
1460;SDS011;724;49.910;12.530;2023-04-03T03:59:23;13.45;;;12.75;;
1460;SDS011;724;49.910;12.530;2023-04-03T04:01:51;13.30;;;12.60;;
1460;SDS011;724;49.910;12.530;2023-04-03T04:04:17;12.80;;;12.10;;
1460;SDS011;724;49.910;12.530;2023-04-03T04:06:46;12.80;;;12.10;;
1460;SDS011;724;49.910;12.530;2023-04-03T04:09:13;12.40;;;11.80;;
1460;SDS011;724;49.910;12.530;2023-04-03T04:11:39;12.80;;;12.10;;
1460;SDS011;724;49.910;12.530;2023-04-03T04:14:06;12.20;;;11.60;;
1460;SDS011;724;49.910;12.530;2023-04-03T04:16:35;12.30;;;11.70;;
1460;SDS011;724;49.910;12.530;2023-04-03T04:19:02;12.40;;;11.80;;
1460;SDS011;724;49.910;12.530;2023-04-03T04:21:28;12.70;;;12.00;;
1460;SDS011;724;49.910;12.530;2023-04-03T04:23:57;12.15;;;11.55;;
1460;SDS011;724;49.910;12.530;2023-04-03T04:26:23;12.80;;;12.10;;
1460;SDS011;724;49.910;12.530;2023-04-03T04:28:51;13.20;;;12.50;;
1460;SDS011;724;49.910;12.530;2023-04-03T04:31:17;12.50;;;11.90;;
1460;SDS011;724;49.910;12.530;2023-04-03T04:33:44;12.60;;;11.95;;
1460;SDS011;724;49.910;12.530;2023-04-03T04:36:11;12.23;;;11.63;;
1460;SDS011;724;49.910;12.530;2023-04-03T04:38:39;12.20;;;11.60;;
1460;SDS011;724;49.910;12.530;2023-04-03T04:41:07;12.80;;;12.10;;
1460;SDS011;724;49.910;12.530;2023-04-03T04:43:34;12.70;;;12.00;;
1460;SDS011;724;49.910;12.530;2023-04-03T04:46:02;12.70;;;12.00;;
1460;SDS011;724;49.910;12.530;2023-04-03T04:48:30;12.70;;;12.00;;
1460;SDS011;724;49.910;12.530;2023-04-03T04:50:57;12.60;;;11.95;;
1460;SDS011;724;49.910;12.530;2023-04-03T04:53:24;12.80;;;12.10;;
1460;SDS011;724;49.910;12.530;2023-04-03T04:55:51;12.80;;;12.10;;
1460;SDS011;724;49.910;12.530;2023-04-03T04:58:19;12.75;;;12.05;;
1460;SDS011;724;49.910;12.530;2023-04-03T05:00:47;12.43;;;11.82;;
1460;SDS011;724;49.910;12.530;2023-04-03T05:03:14;12.88;;;12.18;;
1460;SDS011;724;49.910;12.530;2023-04-03T05:05:41;12.88;;;12.18;;
1460;SDS011;724;49.910;12.530;2023-04-03T05:08:07;13.65;;;12.95;;
1460;SDS011;724;49.910;12.530;2023-04-03T05:10:34;13.07;;;12.38;;
1460;SDS011;724;49.910;12.530;2023-04-03T05:13:01;13.20;;;12.50;;
1460;SDS011;724;49.910;12.530;2023-04-03T05:15:29;13.23;;;12.52;;
1460;SDS011;724;49.910;12.530;2023-04-03T05:17:56;13.35;;;12.65;;
1460;SDS011;724;49.910;12.530;2023-04-03T05:20:23;13.90;;;13.20;;
1460;SDS011;724;49.910;12.530;2023-04-03T05:22:50;13.90;;;13.20;;
1460;SDS011;724;49.910;12.530;2023-04-03T05:25:17;14.10;;;13.40;;
1460;SDS011;724;49.910;12.530;2023-04-03T05:27:43;13.90;;;13.20;;
1460;SDS011;724;49.910;12.530;2023-04-03T05:30:11;14.70;;;13.95;;
1460;SDS011;724;49.910;12.530;2023-04-03T05:32:40;14.90;;;14.10;;
1460;SDS011;724;49.910;12.530;2023-04-03T05:35:07;15.30;;;14.50;;
1460;SDS011;724;49.910;12.530;2023-04-03T05:37:35;15.43;;;14.63;;
1460;SDS011;724;49.910;12.530;2023-04-03T05:40:03;15.70;;;14.90;;
1460;SDS011;724;49.910;12.530;2023-04-03T05:42:30;15.70;;;14.90;;
1460;SDS011;724;49.910;12.530;2023-04-03T05:44:58;15.70;;;14.90;;
1460;SDS011;724;49.910;12.530;2023-04-03T05:47:25;15.70;;;14.90;;
1460;SDS011;724;49.910;12.530;2023-04-03T05:49:53;16.15;;;15.35;;
1460;SDS011;724;49.910;12.530;2023-04-03T05:52:20;15.90;;;15.10;;
1460;SDS011;724;49.910;12.530;2023-04-03T05:54:49;15.90;;;15.10;;
1460;SDS011;724;49.910;12.530;2023-04-03T05:57:16;15.70;;;14.90;;
1460;SDS011;724;49.910;12.530;2023-04-03T05:59:44;15.90;;;15.10;;
1460;SDS011;724;49.910;12.530;2023-04-03T06:02:12;15.50;;;14.70;;
1460;SDS011;724;49.910;12.530;2023-04-03T06:04:41;15.73;;;14.93;;
1460;SDS011;724;49.910;12.530;2023-04-03T06:07:14;15.80;;;15.00;;
1460;SDS011;724;49.910;12.530;2023-04-03T06:09:43;15.10;;;14.30;;
1460;SDS011;724;49.910;12.530;2023-04-03T06:12:11;15.65;;;14.85;;
1460;SDS011;724;49.910;12.530;2023-04-03T06:14:38;15.52;;;14.73;;
1460;SDS011;724;49.910;12.530;2023-04-03T06:17:05;15.93;;;15.13;;
1460;SDS011;724;49.910;12.530;2023-04-03T06:19:33;15.77;;;14.98;;
1460;SDS011;724;49.910;12.530;2023-04-03T06:22:01;15.80;;;15.00;;
1460;SDS011;724;49.910;12.530;2023-04-03T06:24:29;15.70;;;14.90;;
1460;SDS011;724;49.910;12.530;2023-04-03T06:26:56;16.40;;;15.60;;
1460;SDS011;724;49.910;12.530;2023-04-03T06:29:23;16.20;;;15.40;;
1460;SDS011;724;49.910;12.530;2023-04-03T06:31:51;15.93;;;15.13;;
1460;SDS011;724;49.910;12.530;2023-04-03T06:34:18;16.10;;;15.30;;
1460;SDS011;724;49.910;12.530;2023-04-03T06:36:45;16.02;;;15.23;;
1460;SDS011;724;49.910;12.530;2023-04-03T06:39:12;16.20;;;15.40;;
1460;SDS011;724;49.910;12.530;2023-04-03T06:41:42;16.30;;;15.50;;
1460;SDS011;724;49.910;12.530;2023-04-03T06:44:10;16.20;;;15.40;;
1460;SDS011;724;49.910;12.530;2023-04-03T06:46:38;15.90;;;15.10;;
1460;SDS011;724;49.910;12.530;2023-04-03T06:49:05;15.82;;;15.02;;
1460;SDS011;724;49.910;12.530;2023-04-03T06:51:33;15.85;;;15.05;;
1460;SDS011;724;49.910;12.530;2023-04-03T06:54:01;15.80;;;15.00;;
1460;SDS011;724;49.910;12.530;2023-04-03T06:56:30;15.50;;;14.70;;
1460;SDS011;724;49.910;12.530;2023-04-03T06:58:59;15.70;;;14.90;;
1460;SDS011;724;49.910;12.530;2023-04-03T07:01:26;16.20;;;15.40;;
1460;SDS011;724;49.910;12.530;2023-04-03T07:03:55;15.80;;;15.00;;
1460;SDS011;724;49.910;12.530;2023-04-03T07:06:22;15.80;;;15.00;;
1460;SDS011;724;49.910;12.530;2023-04-03T07:08:51;15.77;;;14.98;;
1460;SDS011;724;49.910;12.530;2023-04-03T07:11:18;15.70;;;14.90;;
1460;SDS011;724;49.910;12.530;2023-04-03T07:13:45;15.40;;;14.60;;
1460;SDS011;724;49.910;12.530;2023-04-03T07:16:13;15.70;;;14.90;;
1460;SDS011;724;49.910;12.530;2023-04-03T07:18:40;15.30;;;14.50;;
1460;SDS011;724;49.910;12.530;2023-04-03T07:21:07;15.30;;;14.50;;
1460;SDS011;724;49.910;12.530;2023-04-03T07:23:33;15.90;;;15.10;;
1460;SDS011;724;49.910;12.530;2023-04-03T07:26:00;15.63;;;14.82;;
1460;SDS011;724;49.910;12.530;2023-04-03T07:28:27;16.00;;;15.20;;
1460;SDS011;724;49.910;12.530;2023-04-03T07:30:59;16.00;;;15.20;;
1460;SDS011;724;49.910;12.530;2023-04-03T07:33:29;16.55;;;15.75;;
1460;SDS011;724;49.910;12.530;2023-04-03T07:35:56;16.50;;;15.70;;
1460;SDS011;724;49.910;12.530;2023-04-03T07:38:23;16.63;;;15.82;;
1460;SDS011;724;49.910;12.530;2023-04-03T07:40:50;16.60;;;15.80;;
1460;SDS011;724;49.910;12.530;2023-04-03T07:43:18;17.20;;;16.30;;
1460;SDS011;724;49.910;12.530;2023-04-03T07:45:45;17.30;;;16.40;;
1460;SDS011;724;49.910;12.530;2023-04-03T07:48:14;16.70;;;15.90;;
1460;SDS011;724;49.910;12.530;2023-04-03T07:50:43;17.40;;;16.50;;
1460;SDS011;724;49.910;12.530;2023-04-03T07:53:10;17.15;;;16.25;;
1460;SDS011;724;49.910;12.530;2023-04-03T07:55:37;16.90;;;16.00;;
1460;SDS011;724;49.910;12.530;2023-04-03T07:58:08;16.90;;;16.00;;
1460;SDS011;724;49.910;12.530;2023-04-03T08:00:35;15.73;;;14.93;;
1460;SDS011;724;49.910;12.530;2023-04-03T08:03:03;16.50;;;15.70;;
1460;SDS011;724;49.910;12.530;2023-04-03T08:05:30;16.70;;;15.90;;
1460;SDS011;724;49.910;12.530;2023-04-03T08:07:59;17.13;;;16.23;;
1460;SDS011;724;49.910;12.530;2023-04-03T08:10:26;17.23;;;16.33;;
1460;SDS011;724;49.910;12.530;2023-04-03T08:12:52;17.00;;;16.10;;
1460;SDS011;724;49.910;12.530;2023-04-03T08:15:19;17.00;;;16.10;;
1460;SDS011;724;49.910;12.530;2023-04-03T08:17:46;16.20;;;15.40;;
1460;SDS011;724;49.910;12.530;2023-04-03T08:20:13;16.60;;;15.80;;
1460;SDS011;724;49.910;12.530;2023-04-03T08:22:40;17.20;;;16.30;;
1460;SDS011;724;49.910;12.530;2023-04-03T08:25:09;17.20;;;16.30;;
1460;SDS011;724;49.910;12.530;2023-04-03T08:27:35;17.00;;;16.10;;
1460;SDS011;724;49.910;12.530;2023-04-03T08:30:03;16.50;;;15.70;;
1460;SDS011;724;49.910;12.530;2023-04-03T08:32:32;17.70;;;16.80;;
1460;SDS011;724;49.910;12.530;2023-04-03T08:34:59;17.50;;;16.60;;
1460;SDS011;724;49.910;12.530;2023-04-03T08:37:26;17.40;;;16.50;;
1460;SDS011;724;49.910;12.530;2023-04-03T08:39:53;17.33;;;16.42;;
1460;SDS011;724;49.910;12.530;2023-04-03T08:42:30;16.70;;;15.90;;
1460;SDS011;724;49.910;12.530;2023-04-03T08:45:05;16.50;;;15.70;;
1460;SDS011;724;49.910;12.530;2023-04-03T08:47:38;16.90;;;16.00;;
1460;SDS011;724;49.910;12.530;2023-04-03T08:50:11;16.60;;;15.80;;
1460;SDS011;724;49.910;12.530;2023-04-03T08:52:41;17.20;;;16.30;;
1460;SDS011;724;49.910;12.530;2023-04-03T08:55:14;17.10;;;16.20;;
1460;SDS011;724;49.910;12.530;2023-04-03T08:57:50;16.70;;;15.90;;
1460;SDS011;724;49.910;12.530;2023-04-03T09:00:25;17.30;;;16.40;;
1460;SDS011;724;49.910;12.530;2023-04-03T09:02:56;17.20;;;16.30;;
1460;SDS011;724;49.910;12.530;2023-04-03T09:05:32;17.20;;;16.30;;
1460;SDS011;724;49.910;12.530;2023-04-03T09:08:11;17.70;;;16.80;;
1460;SDS011;724;49.910;12.530;2023-04-03T09:10:45;17.23;;;16.33;;
1460;SDS011;724;49.910;12.530;2023-04-03T09:13:14;17.10;;;16.20;;
1460;SDS011;724;49.910;12.530;2023-04-03T09:15:52;17.20;;;16.30;;
1460;SDS011;724;49.910;12.530;2023-04-03T09:18:21;17.20;;;16.30;;
1460;SDS011;724;49.910;12.530;2023-04-03T09:20:54;17.35;;;16.45;;
1460;SDS011;724;49.910;12.530;2023-04-03T09:23:27;17.50;;;16.60;;
1460;SDS011;724;49.910;12.530;2023-04-03T09:26:00;17.03;;;16.13;;
1460;SDS011;724;49.910;12.530;2023-04-03T09:28:31;17.40;;;16.50;;
1460;SDS011;724;49.910;12.530;2023-04-03T09:31:00;17.20;;;16.30;;
1460;SDS011;724;49.910;12.530;2023-04-03T09:33:32;17.20;;;16.30;;
1460;SDS011;724;49.910;12.530;2023-04-03T09:36:01;16.70;;;15.90;;
1460;SDS011;724;49.910;12.530;2023-04-03T09:38:27;16.60;;;15.80;;
1460;SDS011;724;49.910;12.530;2023-04-03T09:41:02;17.13;;;16.23;;
1460;SDS011;724;49.910;12.530;2023-04-03T09:43:34;16.77;;;15.93;;
1460;SDS011;724;49.910;12.530;2023-04-03T09:46:17;16.50;;;15.70;;
1460;SDS011;724;49.910;12.530;2023-04-03T09:49:04;17.00;;;16.10;;
1460;SDS011;724;49.910;12.530;2023-04-03T09:51:31;16.90;;;16.00;;
1460;SDS011;724;49.910;12.530;2023-04-03T09:53:58;16.60;;;15.80;;
1460;SDS011;724;49.910;12.530;2023-04-03T09:56:25;16.57;;;15.77;;
1460;SDS011;724;49.910;12.530;2023-04-03T09:59:07;16.50;;;15.70;;
1460;SDS011;724;49.910;12.530;2023-04-03T10:01:42;16.70;;;15.90;;
1460;SDS011;724;49.910;12.530;2023-04-03T10:04:16;16.70;;;15.90;;
1460;SDS011;724;49.910;12.530;2023-04-03T10:06:47;16.20;;;15.40;;
1460;SDS011;724;49.910;12.530;2023-04-03T10:09:19;16.50;;;15.70;;
1460;SDS011;724;49.910;12.530;2023-04-03T10:11:58;17.00;;;16.10;;
1460;SDS011;724;49.910;12.530;2023-04-03T10:14:27;16.30;;;15.50;;
1460;SDS011;724;49.910;12.530;2023-04-03T10:16:56;16.90;;;16.00;;
1460;SDS011;724;49.910;12.530;2023-04-03T10:19:34;17.40;;;16.50;;
1460;SDS011;724;49.910;12.530;2023-04-03T10:22:08;16.30;;;15.50;;
1460;SDS011;724;49.910;12.530;2023-04-03T10:24:47;16.40;;;15.60;;
1460;SDS011;724;49.910;12.530;2023-04-03T10:27:22;16.20;;;15.40;;
1460;SDS011;724;49.910;12.530;2023-04-03T10:30:02;16.50;;;15.70;;
1460;SDS011;724;49.910;12.530;2023-04-03T10:32:45;16.60;;;15.80;;
1460;SDS011;724;49.910;12.530;2023-04-03T10:35:25;16.30;;;15.50;;
1460;SDS011;724;49.910;12.530;2023-04-03T10:38:01;17.10;;;16.20;;
1460;SDS011;724;49.910;12.530;2023-04-03T10:40:34;17.20;;;16.30;;
1460;SDS011;724;49.910;12.530;2023-04-03T10:43:09;16.92;;;16.02;;
1460;SDS011;724;49.910;12.530;2023-04-03T10:45:47;16.40;;;15.60;;
1460;SDS011;724;49.910;12.530;2023-04-03T10:48:25;16.90;;;16.00;;
1460;SDS011;724;49.910;12.530;2023-04-03T10:51:05;17.30;;;16.40;;
1460;SDS011;724;49.910;12.530;2023-04-03T10:53:41;17.03;;;16.13;;
1460;SDS011;724;49.910;12.530;2023-04-03T10:56:15;17.20;;;16.30;;
1460;SDS011;724;49.910;12.530;2023-04-03T10:58:48;17.20;;;16.30;;
1460;SDS011;724;49.910;12.530;2023-04-03T11:01:21;17.10;;;16.20;;
1460;SDS011;724;49.910;12.530;2023-04-03T11:03:51;16.53;;;15.73;;
1460;SDS011;724;49.910;12.530;2023-04-03T11:06:21;17.10;;;16.20;;
1460;SDS011;724;49.910;12.530;2023-04-03T11:08:51;17.10;;;16.20;;
1460;SDS011;724;49.910;12.530;2023-04-03T11:11:24;16.93;;;16.03;;
1460;SDS011;724;49.910;12.530;2023-04-03T11:13:54;16.60;;;15.80;;
1460;SDS011;724;49.910;12.530;2023-04-03T11:16:29;16.20;;;15.40;;
1460;SDS011;724;49.910;12.530;2023-04-03T11:18:59;16.92;;;16.02;;
1460;SDS011;724;49.910;12.530;2023-04-03T11:21:29;16.90;;;16.00;;
1460;SDS011;724;49.910;12.530;2023-04-03T11:24:01;16.90;;;16.00;;
1460;SDS011;724;49.910;12.530;2023-04-03T11:26:35;16.90;;;16.00;;
1460;SDS011;724;49.910;12.530;2023-04-03T11:29:06;17.00;;;16.10;;
1460;SDS011;724;49.910;12.530;2023-04-03T11:31:41;17.05;;;16.15;;
1460;SDS011;724;49.910;12.530;2023-04-03T11:34:21;16.10;;;15.30;;
1460;SDS011;724;49.910;12.530;2023-04-03T11:36:57;16.10;;;15.30;;
1460;SDS011;724;49.910;12.530;2023-04-03T11:39:26;16.40;;;15.60;;
1460;SDS011;724;49.910;12.530;2023-04-03T11:42:07;16.70;;;15.90;;
1460;SDS011;724;49.910;12.530;2023-04-03T11:44:41;16.05;;;15.25;;
1460;SDS011;724;49.910;12.530;2023-04-03T11:47:10;15.70;;;14.90;;
1460;SDS011;724;49.910;12.530;2023-04-03T11:58:17;15.90;;;15.10;;
1460;SDS011;724;49.910;12.530;2023-04-03T12:01:00;16.00;;;15.20;;
1460;SDS011;724;49.910;12.530;2023-04-03T12:03:31;16.10;;;15.30;;
1460;SDS011;724;49.910;12.530;2023-04-03T12:09:29;17.20;;;16.30;;
1460;SDS011;724;49.910;12.530;2023-04-03T12:12:00;16.52;;;15.73;;
1460;SDS011;724;49.910;12.530;2023-04-03T12:14:47;16.70;;;15.90;;
1460;SDS011;724;49.910;12.530;2023-04-03T12:17:18;16.60;;;15.80;;
1460;SDS011;724;49.910;12.530;2023-04-03T12:19:50;17.20;;;16.30;;
1460;SDS011;724;49.910;12.530;2023-04-03T12:22:18;16.98;;;16.08;;
1460;SDS011;724;49.910;12.530;2023-04-03T12:24:47;17.17;;;16.27;;
1460;SDS011;724;49.910;12.530;2023-04-03T12:27:20;16.90;;;16.00;;
1460;SDS011;724;49.910;12.530;2023-04-03T12:29:54;16.95;;;16.05;;
1460;SDS011;724;49.910;12.530;2023-04-03T12:32:32;16.70;;;15.90;;
1460;SDS011;724;49.910;12.530;2023-04-03T12:35:16;17.00;;;16.10;;
1460;SDS011;724;49.910;12.530;2023-04-03T12:37:51;16.60;;;15.80;;
1460;SDS011;724;49.910;12.530;2023-04-03T12:40:33;16.45;;;15.65;;
1460;SDS011;724;49.910;12.530;2023-04-03T12:43:17;16.20;;;15.40;;
1460;SDS011;724;49.910;12.530;2023-04-03T12:46:03;16.52;;;15.73;;
1460;SDS011;724;49.910;12.530;2023-04-03T12:48:37;16.20;;;15.40;;
1460;SDS011;724;49.910;12.530;2023-04-03T12:51:14;16.27;;;15.48;;
1460;SDS011;724;49.910;12.530;2023-04-03T12:53:43;16.60;;;15.80;;
1460;SDS011;724;49.910;12.530;2023-04-03T12:56:18;16.60;;;15.80;;
1460;SDS011;724;49.910;12.530;2023-04-03T12:58:47;16.60;;;15.80;;
1460;SDS011;724;49.910;12.530;2023-04-03T13:01:14;16.20;;;15.40;;
1460;SDS011;724;49.910;12.530;2023-04-03T13:03:43;16.45;;;15.65;;
1460;SDS011;724;49.910;12.530;2023-04-03T13:06:16;16.30;;;15.50;;
1460;SDS011;724;49.910;12.530;2023-04-03T13:08:48;16.27;;;15.48;;
1460;SDS011;724;49.910;12.530;2023-04-03T13:11:16;16.00;;;15.20;;
1460;SDS011;724;49.910;12.530;2023-04-03T13:13:53;14.50;;;13.80;;
1460;SDS011;724;49.910;12.530;2023-04-03T13:16:21;14.40;;;13.70;;
1460;SDS011;724;49.910;12.530;2023-04-03T13:18:50;15.50;;;14.70;;
1460;SDS011;724;49.910;12.530;2023-04-03T13:21:19;15.50;;;14.70;;
1460;SDS011;724;49.910;12.530;2023-04-03T13:23:50;15.40;;;14.60;;
1460;SDS011;724;49.910;12.530;2023-04-03T13:26:19;16.00;;;15.20;;
1460;SDS011;724;49.910;12.530;2023-04-03T13:28:47;16.30;;;15.50;;
1460;SDS011;724;49.910;12.530;2023-04-03T13:31:19;15.40;;;14.60;;
1460;SDS011;724;49.910;12.530;2023-04-03T13:33:52;15.30;;;14.50;;
1460;SDS011;724;49.910;12.530;2023-04-03T13:36:24;15.18;;;14.38;;
1460;SDS011;724;49.910;12.530;2023-04-03T13:39:01;14.80;;;14.00;;
1460;SDS011;724;49.910;12.530;2023-04-03T13:41:32;14.93;;;14.13;;
1460;SDS011;724;49.910;12.530;2023-04-03T13:46:53;15.80;;;15.00;;
1460;SDS011;724;49.910;12.530;2023-04-03T13:49:22;16.60;;;15.80;;
1460;SDS011;724;49.910;12.530;2023-04-03T13:51:58;15.90;;;15.10;;
1460;SDS011;724;49.910;12.530;2023-04-03T13:54:29;15.00;;;14.20;;
1460;SDS011;724;49.910;12.530;2023-04-03T13:56:58;15.43;;;14.63;;
1460;SDS011;724;49.910;12.530;2023-04-03T13:59:27;15.68;;;14.88;;
1460;SDS011;724;49.910;12.530;2023-04-03T14:01:57;15.50;;;14.70;;
1460;SDS011;724;49.910;12.530;2023-04-03T14:04:45;14.80;;;14.00;;
1460;SDS011;724;49.910;12.530;2023-04-03T14:07:16;15.20;;;14.40;;
1460;SDS011;724;49.910;12.530;2023-04-03T14:09:45;15.50;;;14.70;;
1460;SDS011;724;49.910;12.530;2023-04-03T14:12:14;15.10;;;14.30;;
1460;SDS011;724;49.910;12.530;2023-04-03T14:14:42;15.10;;;14.30;;
1460;SDS011;724;49.910;12.530;2023-04-03T14:17:13;15.40;;;14.60;;
1460;SDS011;724;49.910;12.530;2023-04-03T14:19:42;15.60;;;14.80;;
1460;SDS011;724;49.910;12.530;2023-04-03T14:22:12;15.68;;;14.88;;
1460;SDS011;724;49.910;12.530;2023-04-03T14:24:43;15.80;;;15.00;;
1460;SDS011;724;49.910;12.530;2023-04-03T14:27:13;15.30;;;14.50;;
1460;SDS011;724;49.910;12.530;2023-04-03T14:29:43;15.20;;;14.40;;
1460;SDS011;724;49.910;12.530;2023-04-03T14:32:11;15.40;;;14.60;;
1460;SDS011;724;49.910;12.530;2023-04-03T14:34:39;15.20;;;14.40;;
1460;SDS011;724;49.910;12.530;2023-04-03T14:37:09;15.30;;;14.50;;
1460;SDS011;724;49.910;12.530;2023-04-03T14:39:37;15.10;;;14.30;;
1460;SDS011;724;49.910;12.530;2023-04-03T14:42:05;15.40;;;14.60;;
1460;SDS011;724;49.910;12.530;2023-04-03T14:44:33;15.20;;;14.40;;
1460;SDS011;724;49.910;12.530;2023-04-03T14:47:00;15.30;;;14.50;;
1460;SDS011;724;49.910;12.530;2023-04-03T14:49:27;14.65;;;13.93;;
1460;SDS011;724;49.910;12.530;2023-04-03T14:51:54;15.30;;;14.50;;
1460;SDS011;724;49.910;12.530;2023-04-03T14:54:22;15.30;;;14.50;;
1460;SDS011;724;49.910;12.530;2023-04-03T14:56:52;15.10;;;14.30;;
1460;SDS011;724;49.910;12.530;2023-04-03T14:59:20;14.70;;;13.95;;
1460;SDS011;724;49.910;12.530;2023-04-03T15:01:48;14.80;;;14.00;;
1460;SDS011;724;49.910;12.530;2023-04-03T15:04:15;15.20;;;14.40;;
1460;SDS011;724;49.910;12.530;2023-04-03T15:06:43;15.10;;;14.30;;
1460;SDS011;724;49.910;12.530;2023-04-03T15:09:15;15.30;;;14.50;;
1460;SDS011;724;49.910;12.530;2023-04-03T15:11:46;15.32;;;14.52;;
1460;SDS011;724;49.910;12.530;2023-04-03T15:14:13;14.98;;;14.18;;
1460;SDS011;724;49.910;12.530;2023-04-03T15:16:41;15.35;;;14.55;;
1460;SDS011;724;49.910;12.530;2023-04-03T15:19:08;14.60;;;13.90;;
1460;SDS011;724;49.910;12.530;2023-04-03T15:21:35;14.50;;;13.80;;